Time;durP1;ratioP1;P1;durP2;ratioP2;P2;SDS_P1;SDS_P2;PMS_P1;PMS_P2;Temp;Humidity;BMP_temperature;BMP_pressure;BME280_temperature;BME280_humidity;BME280_pressure;Samples;Min_cycle;Max_cycle;Signal;HPM_P1;HPM_P2
2023/08/15 00:02:04;;;;;;;8.15;7.35;;;19.50;99.90;;;;;;4994912;28;20703;-88
2023/08/15 00:04:31;;;;;;;8.15;7.22;;;19.50;99.90;;;;;;4978214;28;20282;-88
2023/08/15 00:06:58;;;;;;;9.43;7.90;;;19.50;99.90;;;;;;4978495;28;21525;-89
2023/08/15 00:09:23;;;;;;;8.50;7.65;;;19.60;99.90;;;;;;4978445;28;20249;-88
2023/08/15 00:11:49;;;;;;;8.02;7.43;;;19.50;99.90;;;;;;4978380;28;20560;-88
2023/08/15 00:14:15;;;;;;;7.53;6.82;;;19.50;99.90;;;;;;4978113;28;20191;-89
2023/08/15 00:16:42;;;;;;;7.30;6.60;;;19.40;99.90;;;;;;4978098;28;20215;-89
2023/08/15 00:19:08;;;;;;;6.55;5.97;;;19.40;99.90;;;;;;4978649;28;20266;-88
2023/08/15 00:21:56;;;;;;;7.70;6.90;;;19.30;99.90;;;;;;4978007;28;20196;-89
2023/08/15 00:24:21;;;;;;;8.05;6.47;;;19.30;99.90;;;;;;4977895;28;20195;-89
2023/08/15 00:26:47;;;;;;;6.60;6.00;;;19.20;99.90;;;;;;4977574;28;20177;-88
2023/08/15 00:29:13;;;;;;;7.05;6.35;;;19.20;97.00;;;;;;4995170;28;20180;-88
2023/08/15 00:31:38;;;;;;;6.93;6.32;;;19.20;96.70;;;;;;4977680;28;20622;-89
2023/08/15 00:34:04;;;;;;;6.63;6.03;;;19.20;91.00;;;;;;4977576;28;20180;-89
2023/08/15 00:36:29;;;;;;;7.10;6.40;;;19.30;80.90;;;;;;4977255;28;20399;-89
2023/08/15 00:38:55;;;;;;;7.38;6.47;;;19.10;86.90;;;;;;4993911;28;20685;-88
2023/08/15 00:41:21;;;;;;;7.25;6.35;;;19.10;85.80;;;;;;4977525;28;20211;-88
2023/08/15 00:43:46;;;;;;;6.20;5.60;;;19.00;90.30;;;;;;4977479;28;20187;-88
2023/08/15 00:46:12;;;;;;;6.25;5.75;;;19.00;94.50;;;;;;4977427;28;20654;-89
2023/08/15 00:48:37;;;;;;;6.15;5.55;;;19.00;96.30;;;;;;4994704;28;20203;-88
2023/08/15 00:51:03;;;;;;;5.93;5.40;;;18.90;98.60;;;;;;4977245;28;20180;-88
2023/08/15 00:53:31;;;;;;;6.15;5.55;;;19.00;96.10;;;;;;4977114;28;20185;-88
2023/08/15 00:56:01;;;;;;;5.28;4.78;;;18.90;83.20;;;;;;4976955;28;20210;-89
2023/08/15 00:58:29;;;;;;;5.85;5.15;;;19.00;67.40;;;;;;4977119;28;20196;-89
2023/08/15 01:00:55;;;;;;;6.00;5.28;;;19.00;49.00;;;;;;4994599;28;20164;-89
2023/08/15 01:03:21;;;;;;;5.57;5.07;;;19.00;27.60;;;;;;4977033;28;20191;-89
2023/08/15 01:05:48;;;;;;;5.68;5.28;;;18.90;18.10;;;;;;4976966;28;20181;-89
2023/08/15 01:08:15;;;;;;;6.32;4.78;;;18.90;17.80;;;;;;4991370;28;20278;-88
2023/08/15 01:10:43;;;;;;;5.30;4.80;;;19.00;8.10;;;;;;4991107;28;20266;-89
2023/08/15 01:13:45;;;;;;;5.30;4.90;;;19.00;1.00;;;;;;4996234;28;20597;-90
2023/08/15 01:16:18;;;;;;;4.50;4.10;;;18.90;1.00;;;;;;4996372;28;20249;-89
2023/08/15 01:18:54;;;;;;;6.88;4.85;;;18.90;1.00;;;;;;5013945;28;20183;-89
2023/08/15 01:21:25;;;;;;;5.30;4.80;;;18.90;1.00;;;;;;5014861;28;20167;-89
2023/08/15 01:23:55;;;;;;;6.05;4.28;;;18.80;1.00;;;;;;4995987;28;20673;-88
2023/08/15 01:26:21;;;;;;;4.85;4.35;;;18.90;1.00;;;;;;4995884;28;20187;-88
2023/08/15 01:28:50;;;;;;;5.70;4.28;;;18.90;1.00;;;;;;4995947;28;20206;-89
2023/08/15 01:31:43;;;;;;;6.03;4.60;;;19.30;1.00;;;;;;4999871;28;20580;-88
2023/08/15 01:34:25;;;;;;;4.25;3.92;;;19.10;1.00;;;;;;4976421;28;20259;-88
2023/08/15 01:36:57;;;;;;;5.80;4.25;;;19.00;1.00;;;;;;4976455;28;20295;-89
2023/08/15 01:39:29;;;;;;;4.22;3.83;;;19.00;1.00;;;;;;4976975;28;20172;-88
2023/08/15 01:41:59;;;;;;;4.43;4.00;;;19.00;1.00;;;;;;4977030;28;20196;-89
2023/08/15 01:44:25;;;;;;;4.32;3.70;;;19.00;1.00;;;;;;4976768;28;20172;-88
2023/08/15 01:46:51;;;;;;;7.68;4.18;;;18.90;1.00;;;;;;4976586;28;20671;-88
2023/08/15 01:49:17;;;;;;;9.18;4.03;;;18.90;1.00;;;;;;4993934;28;20223;-88
2023/08/15 01:51:42;;;;;;;5.68;4.43;;;18.90;1.00;;;;;;4977298;28;20231;-90
2023/08/15 01:54:08;;;;;;;6.05;4.20;;;18.90;1.00;;;;;;4960549;28;20199;-89
2023/08/15 01:56:34;;;;;;;5.88;3.75;;;18.90;99.90;;;;;;4976468;28;20583;-89
2023/08/15 01:58:59;;;;;;;4.10;3.60;;;19.00;99.90;;;;;;4976625;28;20283;-89
2023/08/15 02:01:25;;;;;;;3.90;3.60;;;18.90;99.90;;;;;;4976679;28;20680;-89
2023/08/15 02:03:50;;;;;;;4.32;3.80;;;18.90;99.90;;;;;;4976521;28;20203;-89
2023/08/15 02:06:16;;;;;;;4.20;3.80;;;18.80;99.90;;;;;;4976759;28;20184;-89
2023/08/15 02:08:42;;;;;;;4.38;3.85;;;18.80;1.00;;;;;;4976774;28;20247;-88
2023/08/15 02:11:07;;;;;;;5.68;4.10;;;18.90;99.90;;;;;;4976515;28;20180;-89
2023/08/15 02:13:33;;;;;;;4.03;3.72;;;18.80;99.90;;;;;;4976447;28;20204;-89
2023/08/15 02:16:00;;;;;;;6.03;3.80;;;18.80;99.90;;;;;;4976054;28;20896;-89
2023/08/15 02:18:27;;;;;;;5.03;4.07;;;18.70;99.90;;;;;;4976071;28;20682;-89
2023/08/15 02:20:53;;;;;;;4.63;4.03;;;18.60;1.00;;;;;;4976131;28;20184;-89
2023/08/15 02:23:19;;;;;;;4.00;3.70;;;18.50;1.00;;;;;;4976028;28;20251;-89
2023/08/15 02:25:44;;;;;;;4.40;3.70;;;18.50;1.00;;;;;;4975970;28;20618;-89
2023/08/15 02:28:10;;;;;;;6.20;4.13;;;18.50;1.00;;;;;;4975921;28;20196;-89
2023/08/15 02:30:38;;;;;;;5.07;3.78;;;18.40;1.00;;;;;;4976131;28;20230;-89
2023/08/15 02:33:05;;;;;;;4.47;3.85;;;18.40;1.00;;;;;;4976009;28;20180;-89
2023/08/15 02:35:31;;;;;;;4.35;3.42;;;18.50;1.00;;;;;;4976429;28;20239;-89
2023/08/15 02:37:57;;;;;;;4.47;3.75;;;18.60;1.00;;;;;;4975787;28;20211;-89
2023/08/15 02:40:25;;;;;;;6.35;3.80;;;18.50;1.00;;;;;;4976114;28;20172;-89
2023/08/15 02:42:51;;;;;;;4.88;3.60;;;18.50;1.00;;;;;;4975908;28;20215;-89
2023/08/15 02:45:16;;;;;;;4.03;3.72;;;18.50;1.00;;;;;;4975844;28;20216;-90
2023/08/15 02:47:42;;;;;;;5.35;4.05;;;18.50;1.00;;;;;;4975848;28;20249;-89
2023/08/15 02:50:08;;;;;;;5.38;3.97;;;18.40;1.00;;;;;;4975726;28;20181;-89
2023/08/15 02:52:33;;;;;;;4.63;3.67;;;18.40;1.00;;;;;;4975917;28;20177;-89
2023/08/15 02:54:59;;;;;;;5.05;4.28;;;18.60;1.00;;;;;;4975651;28;20184;-89
2023/08/15 02:57:24;;;;;;;4.28;3.92;;;18.30;1.00;;;;;;4975748;28;20219;-89
2023/08/15 02:59:50;;;;;;;5.35;4.10;;;18.30;1.00;;;;;;4975860;28;20192;-89
2023/08/15 03:02:16;;;;;;;4.20;3.80;;;18.30;1.00;;;;;;4978359;28;20177;-89
2023/08/15 03:04:42;;;;;;;4.22;3.83;;;18.20;1.00;;;;;;4996900;28;20180;-89
2023/08/15 03:07:07;;;;;;;4.05;3.72;;;18.30;1.00;;;;;;4979263;28;20196;-90
2023/08/15 03:09:33;;;;;;;3.97;3.65;;;18.30;1.00;;;;;;4996787;28;20187;-89
2023/08/15 03:11:59;;;;;;;4.47;3.90;;;18.30;1.00;;;;;;4979285;28;20180;-89
2023/08/15 03:14:34;;;;;;;3.95;3.42;;;18.40;1.00;;;;;;4996723;28;20239;-89
2023/08/15 03:17:02;;;;;;;4.10;3.55;;;18.40;1.00;;;;;;4979229;28;20212;-89
2023/08/15 03:19:28;;;;;;;3.92;3.50;;;18.40;1.00;;;;;;4979066;28;20271;-89
2023/08/15 03:21:53;;;;;;;3.97;3.65;;;18.50;1.00;;;;;;4979215;28;20754;-89
2023/08/15 03:24:19;;;;;;;5.50;3.58;;;18.50;1.00;;;;;;4978832;28;20246;-89
2023/08/15 03:26:45;;;;;;;4.07;3.42;;;18.50;1.00;;;;;;4979105;28;20665;-88
2023/08/15 03:32:32;;;;;;;3.53;3.22;;;18.60;99.90;;;;;;4996653;28;20184;-89
2023/08/15 03:34:58;;;;;;;5.13;3.67;;;18.60;99.90;;;;;;4978807;28;20184;-89
2023/08/15 03:37:24;;;;;;;6.70;3.60;;;18.60;99.90;;;;;;4978908;28;20690;-89
2023/08/15 03:39:49;;;;;;;5.78;3.78;;;18.60;18.90;;;;;;4978976;28;20180;-89
2023/08/15 03:42:15;;;;;;;5.93;3.40;;;18.60;57.80;;;;;;4978671;28;20180;-90
2023/08/15 03:44:40;;;;;;;3.90;3.42;;;18.60;5.20;;;;;;4978918;28;20590;-89
2023/08/15 03:47:06;;;;;;;4.53;3.40;;;18.50;82.80;;;;;;4978442;28;20207;-89
2023/08/15 03:49:32;;;;;;;4.63;3.50;;;18.50;99.90;;;;;;4978750;28;20254;-89
2023/08/15 03:51:57;;;;;;;5.05;3.50;;;18.40;99.90;;;;;;4978542;28;20185;-90
2023/08/15 03:54:23;;;;;;;5.00;3.72;;;18.40;99.90;;;;;;4978594;28;20224;-89
2023/08/15 03:56:48;;;;;;;6.47;3.60;;;18.40;1.00;;;;;;4962382;28;20856;-89
2023/08/15 03:59:14;;;;;;;4.60;3.22;;;18.40;1.00;;;;;;4978553;28;20223;-89
2023/08/15 04:01:40;;;;;;;5.47;3.50;;;18.40;1.00;;;;;;4995879;28;20177;-89
2023/08/15 04:04:06;;;;;;;7.22;3.25;;;18.40;1.00;;;;;;4978376;28;20179;-89
2023/08/15 04:06:31;;;;;;;4.40;3.30;;;18.40;1.00;;;;;;4978438;28;20180;-89
2023/08/15 04:08:57;;;;;;;3.50;3.20;;;18.40;1.00;;;;;;4978469;28;20203;-89
2023/08/15 04:11:23;;;;;;;8.98;3.97;;;18.40;90.30;;;;;;4978195;28;20176;-89
2023/08/15 04:13:48;;;;;;;4.03;3.20;;;18.40;90.50;;;;;;4995434;28;20183;-88
2023/08/15 04:16:15;;;;;;;3.90;2.70;;;18.40;36.30;;;;;;4978153;28;20215;-90
2023/08/15 04:18:40;;;;;;;3.17;2.85;;;18.40;22.50;;;;;;4978074;28;20200;-89
2023/08/15 04:21:06;;;;;;;3.53;3.15;;;18.40;1.00;;;;;;4978142;28;20179;-90
2023/08/15 04:23:32;;;;;;;4.90;3.38;;;18.50;1.00;;;;;;4978077;28;20250;-90
2023/08/15 04:25:58;;;;;;;4.93;3.35;;;18.50;1.00;;;;;;4978158;28;20181;-89
2023/08/15 04:28:23;;;;;;;3.35;3.05;;;18.50;1.00;;;;;;4978365;28;20234;-89
2023/08/15 04:30:49;;;;;;;3.70;3.08;;;18.60;99.90;;;;;;4978096;28;20176;-90
2023/08/15 04:33:14;;;;;;;4.00;3.60;;;18.60;99.90;;;;;;4977839;28;20176;-89
2023/08/15 04:35:40;;;;;;;3.92;3.30;;;18.60;1.00;;;;;;4977704;28;20180;-89
2023/08/15 04:38:06;;;;;;;4.50;2.83;;;18.60;1.00;;;;;;4977707;28;20736;-89
2023/08/15 04:40:40;;;;;;;4.72;3.47;;;18.70;46.60;;;;;;4977971;28;20176;-89
2023/08/15 04:43:06;;;;;;;3.60;3.30;;;18.70;99.90;;;;;;4977853;28;20649;-89
2023/08/15 04:45:32;;;;;;;3.45;3.15;;;18.80;1.00;;;;;;4977723;28;20266;-89
2023/08/15 04:47:57;;;;;;;3.17;2.83;;;18.80;1.00;;;;;;4977581;28;20224;-90
2023/08/15 04:50:23;;;;;;;3.90;3.10;;;18.80;99.90;;;;;;4977617;28;20282;-90
2023/08/15 04:52:49;;;;;;;3.60;2.88;;;18.90;99.90;;;;;;4977884;28;20180;-91
2023/08/15 04:55:15;;;;;;;4.70;2.80;;;19.00;1.00;;;;;;4996484;28;20188;-87
2023/08/15 04:57:41;;;;;;;3.88;2.92;;;19.00;99.90;;;;;;4999601;28;20220;-88
2023/08/15 05:00:11;;;;;;;4.10;3.22;;;19.10;1.00;;;;;;4978888;28;20263;-88
2023/08/15 05:02:44;;;;;;;3.28;2.78;;;19.20;1.00;;;;;;4995164;28;20171;-89
2023/08/15 05:05:26;;;;;;;2.78;2.55;;;19.30;99.90;;;;;;4995152;28;20238;-88
2023/08/15 05:07:52;;;;;;;3.13;2.83;;;19.50;1.00;;;;;;4996153;28;20195;-85
2023/08/15 05:10:18;;;;;;;3.05;2.60;;;19.80;17.70;;;;;;5013408;28;20172;-86
2023/08/15 05:12:43;;;;;;;4.53;2.33;;;20.70;1.00;;;;;;4995943;28;20203;-86
2023/08/15 05:15:09;;;;;;;2.08;1.98;;;21.80;99.90;;;;;;4995543;28;20662;-86
2023/08/15 05:17:35;;;;;;;3.05;2.13;;;22.80;1.00;;;;;;5012846;28;20212;-87
2023/08/15 05:20:03;;;;;;;3.85;2.30;;;23.00;1.00;;;;;;4995394;28;20238;-87
2023/08/15 05:22:28;;;;;;;2.30;1.90;;;22.70;1.00;;;;;;4995650;28;20207;-87
2023/08/15 05:24:54;;;;;;;2.88;2.20;;;22.50;1.00;;;;;;4994975;28;20226;-86
2023/08/15 05:27:19;;;;;;;2.55;2.00;;;22.30;1.00;;;;;;4995674;28;20204;-87
2023/08/15 05:29:45;;;;;;;4.13;2.10;;;22.20;1.00;;;;;;4995463;28;20190;-86
2023/08/15 05:32:11;;;;;;;3.20;2.40;;;22.00;1.00;;;;;;5009469;28;20194;-87
2023/08/15 05:34:36;;;;;;;3.22;2.60;;;21.80;14.50;;;;;;5015347;28;20178;-87
2023/08/15 05:37:02;;;;;;;4.05;2.65;;;21.70;1.00;;;;;;5015148;28;20261;-86
2023/08/15 05:39:28;;;;;;;2.90;2.60;;;21.70;1.00;;;;;;5015132;28;20175;-86
2023/08/15 05:41:53;;;;;;;4.15;2.67;;;21.60;1.00;;;;;;5015276;28;20240;-86
2023/08/15 05:44:19;;;;;;;7.15;2.78;;;21.40;1.00;;;;;;5015086;28;20178;-87
2023/08/15 05:46:44;;;;;;;3.03;2.40;;;21.30;99.90;;;;;;5015012;28;20187;-86
2023/08/15 05:49:10;;;;;;;2.80;2.47;;;21.20;99.90;;;;;;5015089;28;20706;-86
2023/08/15 05:51:35;;;;;;;3.72;2.50;;;21.10;1.00;;;;;;5015089;28;20545;-86
2023/08/15 05:54:01;;;;;;;4.18;2.97;;;21.00;1.00;;;;;;5014853;28;20245;-86
2023/08/15 05:56:27;;;;;;;4.60;2.55;;;20.90;99.90;;;;;;5014718;28;20206;-85
2023/08/15 05:58:52;;;;;;;3.38;2.70;;;21.00;1.00;;;;;;5014675;28;20673;-85
2023/08/15 06:01:21;;;;;;;3.55;2.53;;;21.00;1.00;;;;;;5032660;28;20170;-86
2023/08/15 06:03:46;;;;;;;3.17;2.88;;;21.00;1.00;;;;;;5013172;28;20174;-86
2023/08/15 06:06:12;;;;;;;5.53;2.95;;;20.90;99.90;;;;;;5000961;28;20188;-86
2023/08/15 06:08:37;;;;;;;3.63;2.50;;;21.00;99.90;;;;;;4990695;28;20689;-86
2023/08/15 06:11:03;;;;;;;2.85;2.28;;;21.10;1.00;;;;;;5018625;28;20226;-86
2023/08/15 06:13:29;;;;;;;2.60;2.40;;;21.70;99.90;;;;;;5012901;28;20241;-86
2023/08/15 06:15:54;;;;;;;2.40;2.20;;;22.80;1.00;;;;;;5011664;28;20187;-85
2023/08/15 06:18:20;;;;;;;2.42;2.22;;;24.20;1.00;;;;;;5013746;28;20259;-86
2023/08/15 06:20:45;;;;;;;2.90;2.60;;;25.10;1.00;;;;;;5013961;28;20171;-86
2023/08/15 06:23:12;;;;;;;3.05;2.30;;;25.80;99.90;;;;;;5009202;28;20194;-86
2023/08/15 06:25:41;;;;;;;4.70;2.50;;;25.50;99.90;;;;;;4977973;28;20247;-87
2023/08/15 06:28:08;;;;;;;2.63;2.30;;;24.90;99.90;;;;;;4992674;28;20196;-88
2023/08/15 06:30:34;;;;;;;3.63;2.42;;;25.30;99.90;;;;;;4992530;28;20548;-86
2023/08/15 06:32:59;;;;;;;2.40;2.20;;;26.10;99.90;;;;;;4992628;28;20183;-86
2023/08/15 06:35:28;;;;;;;4.35;2.65;;;26.30;99.90;;;;;;5002458;28;20185;-87
2023/08/15 06:37:54;;;;;;;5.00;2.38;;;26.50;99.90;;;;;;5026984;28;20205;-86
2023/08/15 06:40:20;;;;;;;4.75;3.40;;;26.00;99.90;;;;;;5017585;28;20179;-85
2023/08/15 06:42:45;;;;;;;2.85;2.40;;;26.00;99.90;;;;;;5003591;28;20178;-92
2023/08/15 06:55:38;;;;;;;2.80;2.60;;;24.40;99.90;;;;;;5037152;28;20242;-90
2023/08/15 06:58:05;;;;;;;3.00;2.55;;;23.80;99.90;;;;;;5020002;28;20213;-90
2023/08/15 07:00:32;;;;;;;3.45;2.78;;;24.10;1.00;;;;;;5019797;28;20443;-90
2023/08/15 07:03:01;;;;;;;3.30;2.95;;;23.70;1.00;;;;;;5019039;28;20182;-91
2023/08/15 07:05:27;;;;;;;4.20;3.00;;;23.90;99.90;;;;;;5018828;28;20595;-92
2023/08/15 07:07:53;;;;;;;9.65;4.07;;;23.60;99.90;;;;;;5018902;28;20796;-92
2023/08/15 07:10:20;;;;;;;6.07;3.15;;;23.50;99.90;;;;;;5019024;28;20183;-93
2023/08/15 07:12:55;;;;;;;4.13;3.38;;;23.20;99.90;;;;;;5036868;28;20198;-92
2023/08/15 07:15:20;;;;;;;4.65;3.40;;;22.90;1.00;;;;;;5019095;28;20317;-91
2023/08/15 07:17:46;;;;;;;4.57;3.33;;;22.60;99.90;;;;;;5018548;28;20237;-92
2023/08/15 07:20:16;;;;;;;5.30;2.78;;;23.20;99.90;;;;;;5018678;28;20186;-92
2023/08/15 07:22:42;;;;;;;3.35;2.33;;;22.10;99.90;;;;;;5002568;28;20179;-92
2023/08/15 07:25:08;;;;;;;2.95;2.10;;;21.60;1.00;;;;;;5037605;22;20258;-73
2023/08/15 07:27:34;;;;;;;4.38;2.25;;;21.60;99.90;;;;;;5012784;28;20207;-73
2023/08/15 07:29:59;;;;;;;3.38;2.00;;;21.40;28.90;;;;;;5016411;28;20267;-74
2023/08/15 07:32:27;;;;;;;2.97;1.98;;;21.20;1.00;;;;;;5010532;28;20226;-73
2023/08/15 07:34:53;;;;;;;7.10;2.83;;;20.90;1.00;;;;;;5010208;28;20204;-73
2023/08/15 07:37:18;;;;;;;3.97;2.00;;;20.70;28.80;;;;;;5015943;28;20206;-73
2023/08/15 07:39:44;;;;;;;5.32;2.30;;;20.50;99.90;;;;;;5014581;28;20267;-73
2023/08/15 07:42:10;;;;;;;4.18;1.40;;;20.40;1.00;;;;;;5010420;28;20635;-74
2023/08/15 07:44:36;;;;;;;3.17;1.60;;;20.20;1.00;;;;;;5013082;28;20565;-74
2023/08/15 07:47:02;;;;;;;4.53;1.85;;;20.10;99.90;;;;;;5004719;28;20194;-73
2023/08/15 07:49:30;;;;;;;2.72;1.40;;;20.20;99.90;;;;;;5015630;28;20279;-73
2023/08/15 07:51:56;;;;;;;3.10;1.52;;;20.20;1.00;;;;;;5015562;28;20188;-73
2023/08/15 07:54:21;;;;;;;1.58;1.40;;;20.20;99.90;;;;;;5007767;28;20679;-72
2023/08/15 07:56:47;;;;;;;3.10;1.40;;;20.40;99.90;;;;;;5013802;28;20211;-73
2023/08/15 07:59:13;;;;;;;1.77;1.20;;;20.50;1.00;;;;;;5015350;28;20190;-72
2023/08/15 08:01:42;;;;;;;1.52;1.23;;;20.80;31.10;;;;;;5016071;28;20171;-72
2023/08/15 08:04:08;;;;;;;2.70;1.17;;;21.20;1.00;;;;;;4997142;28;20204;-74
2023/08/15 08:06:33;;;;;;;2.33;1.23;;;21.40;99.90;;;;;;5004911;28;20323;-73
2023/08/15 08:08:59;;;;;;;4.00;1.33;;;21.70;1.00;;;;;;5091928;22;20180;-74
2023/08/15 08:11:25;;;;;;;1.40;1.17;;;21.90;1.00;;;;;;5018813;28;20227;-73
2023/08/15 08:13:50;;;;;;;2.10;1.02;;;22.20;99.90;;;;;;5022346;28;20209;-73
2023/08/15 08:16:17;;;;;;;2.05;1.25;;;22.40;25.90;;;;;;5013022;28;20207;-72
2023/08/15 08:18:43;;;;;;;1.95;1.40;;;22.60;99.90;;;;;;5012613;28;20187;-72
2023/08/15 08:21:09;;;;;;;1.60;1.30;;;22.80;99.90;;;;;;5013136;28;20194;-73
2023/08/15 08:23:35;;;;;;;1.15;1.05;;;22.90;99.90;;;;;;5005034;28;20200;-73
2023/08/15 08:26:01;;;;;;;2.08;1.30;;;22.90;1.00;;;;;;4998211;28;20233;-73
2023/08/15 08:28:27;;;;;;;4.90;1.33;;;22.80;74.30;;;;;;5009295;28;20591;-73
2023/08/15 08:30:52;;;;;;;1.48;1.30;;;23.00;99.90;;;;;;5009098;28;20190;-74
2023/08/15 08:33:18;;;;;;;1.60;1.50;;;23.10;1.00;;;;;;5011395;28;20238;-73
2023/08/15 08:35:44;;;;;;;2.55;1.67;;;23.40;1.00;;;;;;5013592;28;20630;-72
2023/08/15 08:38:10;;;;;;;2.28;1.20;;;23.80;99.90;;;;;;5014467;28;20261;-74
2023/08/15 08:40:36;;;;;;;1.52;1.40;;;23.90;1.00;;;;;;5011855;28;20180;-73
2023/08/15 08:43:03;;;;;;;1.40;1.30;;;24.30;1.00;;;;;;5011919;28;20285;-73
2023/08/15 08:45:33;;;;;;;3.28;1.40;;;24.50;1.00;;;;;;5014185;28;20176;-73
2023/08/15 08:48:04;;;;;;;3.72;1.45;;;24.50;1.00;;;;;;5014574;28;20167;-72
2023/08/15 08:50:32;;;;;;;2.40;1.80;;;24.80;1.00;;;;;;4996223;28;20615;-70
2023/08/15 08:52:59;;;;;;;1.52;1.42;;;25.00;99.90;;;;;;4996076;28;20243;-74
2023/08/15 08:55:27;;;;;;;1.85;1.50;;;25.10;99.90;;;;;;5001055;28;20195;-72
2023/08/15 08:57:54;;;;;;;1.70;1.60;;;24.90;1.00;;;;;;5013730;28;20211;-73
2023/08/15 09:00:25;;;;;;;1.60;1.50;;;24.80;99.90;;;;;;5012787;28;20591;-73
2023/08/15 09:02:52;;;;;;;1.67;1.58;;;24.60;99.90;;;;;;5008093;28;20180;-73
2023/08/15 09:05:28;;;;;;;1.85;1.63;;;24.40;99.90;;;;;;5013625;28;20203;-71
2023/08/15 09:07:54;;;;;;;2.30;1.50;;;24.30;99.90;;;;;;4981940;28;20208;-73
2023/08/15 09:10:23;;;;;;;2.47;2.00;;;24.30;99.90;;;;;;4994753;28;20195;-73
2023/08/15 09:12:48;;;;;;;2.05;1.85;;;24.30;99.90;;;;;;5006231;28;20191;-73
2023/08/15 09:15:14;;;;;;;2.80;1.75;;;24.10;99.90;;;;;;5014297;28;20172;-73
2023/08/15 09:17:42;;;;;;;2.72;1.88;;;23.90;99.90;;;;;;4996059;28;20214;-73
2023/08/15 09:20:16;;;;;;;2.33;2.13;;;24.00;1.00;;;;;;5007690;28;20273;-73
2023/08/15 09:22:46;;;;;;;1.85;1.70;;;23.90;99.90;;;;;;4987567;28;20194;-72
2023/08/15 09:25:15;;;;;;;2.35;1.80;;;23.60;99.90;;;;;;5013654;28;20175;-72
2023/08/15 09:27:42;;;;;;;2.47;1.98;;;23.50;1.00;;;;;;4993552;28;20188;-73
2023/08/15 09:30:40;;;;;;;1.60;1.48;;;23.60;1.00;;;;;;5001378;28;20869;-72
2023/08/15 09:33:08;;;;;;;2.13;1.92;;;23.60;1.00;;;;;;4989410;28;20244;-72
2023/08/15 09:35:34;;;;;;;2.10;1.90;;;23.70;1.00;;;;;;5006175;28;20223;-72
2023/08/15 09:38:05;;;;;;;1.85;1.52;;;23.80;1.00;;;;;;4996865;28;20236;-73
2023/08/15 09:40:31;;;;;;;2.88;2.08;;;23.90;1.00;;;;;;5008891;28;20270;-72
2023/08/15 09:42:57;;;;;;;2.45;1.63;;;24.00;1.00;;;;;;5014101;28;20297;-73
2023/08/15 09:45:24;;;;;;;2.92;1.88;;;24.20;99.90;;;;;;5013706;28;20646;-73
2023/08/15 09:47:50;;;;;;;7.30;2.13;;;24.40;99.90;;;;;;5014050;28;20188;-73
2023/08/15 09:50:16;;;;;;;5.47;1.98;;;24.50;99.90;;;;;;5014080;28;20206;-73
2023/08/15 09:52:44;;;;;;;4.63;2.03;;;24.40;99.90;;;;;;5013892;28;20234;-73
2023/08/15 09:55:14;;;;;;;5.28;1.90;;;24.40;99.90;;;;;;5013442;28;20176;-74
2023/08/15 09:57:41;;;;;;;3.78;2.17;;;24.30;20.20;;;;;;5014015;28;20616;-73
2023/08/15 10:00:12;;;;;;;2.65;1.48;;;24.40;65.20;;;;;;5014221;28;20182;-73
2023/08/15 10:02:45;;;;;;;5.75;2.22;;;24.50;1.00;;;;;;5013869;28;20668;-73
2023/08/15 10:05:16;;;;;;;6.95;2.05;;;24.50;1.00;;;;;;4995762;28;20187;-73
2023/08/15 10:07:43;;;;;;;2.67;2.00;;;24.50;1.00;;;;;;5013564;28;20560;-72
2023/08/15 10:10:09;;;;;;;1.60;1.50;;;24.50;1.00;;;;;;5013557;28;20673;-72
2023/08/15 10:12:38;;;;;;;4.43;1.88;;;24.60;1.00;;;;;;5013536;28;20187;-73
2023/08/15 10:15:07;;;;;;;4.93;1.67;;;24.80;1.00;;;;;;5013096;28;20874;-72
2023/08/15 10:17:33;;;;;;;2.97;1.80;;;25.00;1.00;;;;;;5013567;28;20203;-73
2023/08/15 10:20:10;;;;;;;1.67;1.35;;;25.00;1.00;;;;;;5013943;28;20168;-72
2023/08/15 10:22:37;;;;;;;2.47;1.20;;;24.90;1.00;;;;;;4996225;28;20219;-72
2023/08/15 10:25:23;;;;;;;4.28;1.65;;;24.80;1.00;;;;;;5013486;28;20199;-73
2023/08/15 10:27:53;;;;;;;3.13;1.42;;;24.70;1.00;;;;;;5013555;28;20179;-72
2023/08/15 10:30:41;;;;;;;1.75;1.38;;;24.70;1.00;;;;;;5013705;28;20230;-72
2023/08/15 10:33:16;;;;;;;1.40;1.30;;;24.90;1.00;;;;;;5013512;28;20202;-72
2023/08/15 10:35:51;;;;;;;2.33;1.50;;;25.10;1.00;;;;;;5012959;28;20659;-73
2023/08/15 10:38:19;;;;;;;2.03;1.15;;;25.20;1.00;;;;;;5013244;28;20213;-72
2023/08/15 10:40:45;;;;;;;1.83;1.25;;;25.30;1.00;;;;;;5013513;28;20179;-72
2023/08/15 10:43:13;;;;;;;1.08;0.98;;;25.40;1.00;;;;;;5012664;28;20207;-72
2023/08/15 10:45:50;;;;;;;1.92;1.00;;;25.60;1.00;;;;;;5003188;28;20184;-71
2023/08/15 10:48:51;;;;;;;1.42;0.93;;;25.60;1.00;;;;;;4996155;28;20234;-72
2023/08/15 10:51:22;;;;;;;3.88;1.30;;;25.70;1.00;;;;;;5013444;28;20317;-72
2023/08/15 10:54:01;;;;;;;1.60;0.90;;;25.90;1.00;;;;;;5013066;28;20277;-72
2023/08/15 10:56:29;;;;;;;1.75;0.85;;;25.80;1.00;;;;;;5012682;28;20203;-70
2023/08/15 10:58:56;;;;;;;1.10;0.88;;;25.90;1.00;;;;;;5012778;28;20553;-72
2023/08/15 11:01:24;;;;;;;1.23;1.13;;;25.80;1.00;;;;;;5013268;28;20662;-72
2023/08/15 11:03:51;;;;;;;1.25;1.05;;;25.90;1.00;;;;;;5013051;28;20569;-73
2023/08/15 11:06:17;;;;;;;1.20;1.10;;;26.00;1.00;;;;;;4995038;28;20175;-72
2023/08/15 11:08:47;;;;;;;2.35;1.10;;;26.00;1.00;;;;;;5013034;28;20184;-73
2023/08/15 11:11:14;;;;;;;1.00;0.90;;;26.00;1.00;;;;;;5013146;28;20203;-72
2023/08/15 11:13:42;;;;;;;1.20;0.90;;;25.90;1.00;;;;;;5012777;28;20203;-71
2023/08/15 11:16:08;;;;;;;1.23;1.02;;;25.90;1.00;;;;;;5012443;28;20176;-72
2023/08/15 11:18:35;;;;;;;1.73;1.00;;;25.80;1.00;;;;;;5013235;28;20697;-71
2023/08/15 11:21:01;;;;;;;2.30;1.02;;;26.10;1.00;;;;;;5012541;28;20199;-71
2023/08/15 11:23:28;;;;;;;1.35;1.08;;;26.00;1.00;;;;;;5010763;28;20188;-71
2023/08/15 11:26:02;;;;;;;1.27;1.00;;;25.90;1.00;;;;;;4999002;28;20204;-72
2023/08/15 11:28:28;;;;;;;1.45;1.25;;;25.90;1.00;;;;;;4997087;28;20172;-71
2023/08/15 11:30:53;;;;;;;2.00;1.35;;;25.80;1.00;;;;;;4997056;28;20207;-72
2023/08/15 11:33:19;;;;;;;1.23;1.10;;;25.90;1.00;;;;;;4996695;28;20196;-71
2023/08/15 11:35:47;;;;;;;1.45;1.35;;;26.00;1.00;;;;;;4996187;28;20184;-71
2023/08/15 11:38:12;;;;;;;2.88;1.40;;;26.30;1.00;;;;;;4996936;28;20555;-72
2023/08/15 11:40:38;;;;;;;3.47;1.27;;;26.40;1.00;;;;;;4996373;28;20180;-72
2023/08/15 11:43:05;;;;;;;1.30;1.20;;;26.40;1.00;;;;;;4994488;28;20196;-72
2023/08/15 11:45:32;;;;;;;2.83;1.50;;;26.40;1.00;;;;;;4994207;28;20186;-72
2023/08/15 11:47:59;;;;;;;2.17;1.30;;;26.20;1.00;;;;;;4994257;28;20176;-72
2023/08/15 11:50:29;;;;;;;1.88;1.42;;;26.30;1.00;;;;;;4994774;28;20181;-72
2023/08/15 11:52:55;;;;;;;1.75;1.42;;;26.40;1.00;;;;;;4994544;28;21855;-72
2023/08/15 11:55:21;;;;;;;1.70;1.35;;;26.50;1.00;;;;;;4994079;28;20632;-72
2023/08/15 11:57:48;;;;;;;1.45;1.30;;;26.60;1.00;;;;;;5009333;28;20265;-72
2023/08/15 12:00:19;;;;;;;1.95;1.30;;;26.70;1.00;;;;;;5015793;28;20251;-72
2023/08/15 12:02:46;;;;;;;3.33;1.52;;;26.70;1.00;;;;;;5015832;28;20230;-72
2023/08/15 12:05:18;;;;;;;2.63;1.50;;;26.80;1.00;;;;;;5015135;28;20164;-72
2023/08/15 12:07:46;;;;;;;2.53;1.70;;;26.90;1.00;;;;;;5015818;28;20172;-72
2023/08/15 12:10:14;;;;;;;3.28;2.15;;;27.00;1.00;;;;;;5015605;28;20198;-72
2023/08/15 12:12:47;;;;;;;4.40;1.80;;;26.90;1.00;;;;;;5015570;28;20191;-72
2023/08/15 12:15:14;;;;;;;1.67;1.52;;;26.70;1.00;;;;;;5015288;28;20175;-72
2023/08/15 12:17:40;;;;;;;2.38;1.70;;;26.80;1.00;;;;;;5015639;28;20199;-73
2023/08/15 12:20:11;;;;;;;1.65;1.52;;;26.90;99.90;;;;;;5015816;28;20172;-72
2023/08/15 12:22:41;;;;;;;2.33;1.95;;;27.10;99.90;;;;;;5015189;28;20175;-72
2023/08/15 12:25:08;;;;;;;1.83;1.65;;;27.30;1.00;;;;;;5015048;28;20636;-72
2023/08/15 12:27:35;;;;;;;2.78;2.33;;;27.50;99.90;;;;;;5015567;28;20168;-72
2023/08/15 12:30:02;;;;;;;2.38;1.73;;;27.50;1.00;;;;;;5015659;28;20206;-72
2023/08/15 12:32:28;;;;;;;3.28;2.05;;;27.40;99.90;;;;;;5015364;28;20210;-71
2023/08/15 12:34:54;;;;;;;4.95;1.90;;;27.50;1.00;;;;;;5014657;28;20226;-72
2023/08/15 12:37:19;;;;;;;2.05;1.90;;;27.40;99.90;;;;;;5015298;28;20282;-72
2023/08/15 12:39:45;;;;;;;2.15;1.95;;;27.50;99.90;;;;;;5015307;28;20172;-72
2023/08/15 12:42:12;;;;;;;2.95;2.15;;;27.60;99.90;;;;;;5015253;28;20179;-72
2023/08/15 12:44:38;;;;;;;2.13;1.63;;;27.50;99.90;;;;;;5015034;28;20188;-71
2023/08/15 12:47:04;;;;;;;1.85;1.70;;;27.60;99.90;;;;;;5014531;28;20187;-71
2023/08/15 12:49:29;;;;;;;1.70;1.60;;;27.40;99.90;;;;;;5015170;28;20259;-72
2023/08/15 12:51:55;;;;;;;2.00;1.80;;;27.40;99.90;;;;;;5015083;28;20634;-72
2023/08/15 12:54:21;;;;;;;2.13;1.70;;;27.40;99.90;;;;;;5014765;28;20221;-73
2023/08/15 12:56:46;;;;;;;2.15;1.63;;;27.20;99.90;;;;;;5014274;28;20258;-69
2023/08/15 12:59:12;;;;;;;2.95;1.80;;;27.10;99.90;;;;;;5014920;28;20171;-71
2023/08/15 13:01:38;;;;;;;1.77;1.67;;;27.10;99.90;;;;;;5015072;28;20168;-71
2023/08/15 13:04:03;;;;;;;2.08;1.70;;;27.30;1.00;;;;;;4996972;28;20670;-72
2023/08/15 13:06:29;;;;;;;1.80;1.70;;;27.50;99.90;;;;;;5014264;28;20176;-71
2023/08/15 13:08:54;;;;;;;2.47;1.50;;;27.70;99.90;;;;;;5014653;28;20187;-72